Time,TemperatureF,DewpointF,PressureIn,WindDirection,WindDirectionDegrees,WindSpeedMPH,WindSpeedGustMPH,Humidity,HourlyPrecipIn,Conditions,Clouds,dailyrainin,SoftwareType,DateUTC
2013-05-10 00:22:00,43.0,40.0,30.04,North,-999,0.0,0.0,88,0.00,,,-99.99,,2013-05-10 07:22:00,
2013-05-10 00:31:00,43.0,40.0,30.04,North,-999,0.0,0.0,88,0.00,,,-99.99,,2013-05-10 07:31:00,
2013-05-10 00:42:00,43.0,40.0,30.04,North,-999,0.0,0.0,88,0.00,,,-99.99,,2013-05-10 07:42:00,
2013-05-10 01:21:00,43.0,38.0,30.04,North,-999,0.0,0.0,82,0.00,,,-99.99,,2013-05-10 08:21:00,
2013-05-10 01:32:00,43.0,38.0,30.04,North,-999,0.0,0.0,82,0.00,,,-99.99,,2013-05-10 08:32:00,
2013-05-10 01:42:00,43.0,38.0,30.04,North,-999,0.0,0.0,82,0.00,,,-99.99,,2013-05-10 08:42:00,
2013-05-10 02:21:00,41.0,37.0,30.03,North,-999,0.0,0.0,85,0.00,,,-99.99,,2013-05-10 09:21:00,
2013-05-10 02:32:00,41.0,37.0,30.03,North,-999,0.0,0.0,85,0.00,,,-99.99,,2013-05-10 09:32:00,
2013-05-10 02:42:00,41.0,37.0,30.03,North,-999,0.0,0.0,85,0.00,,,-99.99,,2013-05-10 09:42:00,
2013-05-10 03:23:00,41.0,37.0,30.02,North,0,0.0,1.0,85,0.00,,,-99.99,,2013-05-10 10:23:00,
2013-05-10 03:32:00,41.0,37.0,30.02,North,0,0.0,1.0,85,0.00,,,-99.99,,2013-05-10 10:32:00,
2013-05-10 03:42:00,41.0,37.0,30.02,North,0,0.0,1.0,85,0.00,,,-99.99,,2013-05-10 10:42:00,
2013-05-10 04:21:00,41.0,37.0,30.02,North,-999,0.0,0.0,85,0.00,,,-99.99,,2013-05-10 11:21:00,
2013-05-10 04:32:00,41.0,37.0,30.02,North,-999,0.0,0.0,85,0.00,,,-99.99,,2013-05-10 11:32:00,
2013-05-10 05:21:00,41.0,37.0,30.02,North,-999,0.0,0.0,85,0.00,,,-99.99,,2013-05-10 12:21:00,
2013-05-10 05:32:00,41.0,37.0,30.02,North,-999,0.0,0.0,85,0.00,,,-99.99,,2013-05-10 12:32:00,
2013-05-10 06:21:00,41.0,37.0,30.02,North,-999,0.0,0.0,86,0.00,,,-99.99,,2013-05-10 13:21:00,
2013-05-10 06:32:00,41.0,37.0,30.02,North,-999,0.0,0.0,86,0.00,,,-99.99,,2013-05-10 13:32:00,
2013-05-10 06:41:00,41.0,37.0,30.02,North,-999,0.0,0.0,86,0.00,,,-99.99,,2013-05-10 13:41:00,
2013-05-10 07:21:00,47.0,40.0,30.04,North,-999,0.0,0.0,77,0.00,,,-99.99,,2013-05-10 14:21:00,
2013-05-10 07:32:00,47.0,40.0,30.04,North,-999,0.0,0.0,77,0.00,,,-99.99,,2013-05-10 14:32:00,
2013-05-10 08:21:00,50.0,42.0,30.05,NE,40,3.0,4.0,73,0.00,,,-99.99,,2013-05-10 15:21:00,
2013-05-10 08:32:00,50.0,42.0,30.05,NE,40,3.0,4.0,73,0.00,,,-99.99,,2013-05-10 15:32:00,
2013-05-10 08:42:00,50.0,42.0,30.05,NE,40,3.0,4.0,73,0.00,,,-99.99,,2013-05-10 15:42:00,
2013-05-10 09:23:00,52.0,41.0,30.05,NE,50,4.0,11.0,65,0.00,,,-99.99,,2013-05-10 16:23:00,
2013-05-10 09:32:00,52.0,41.0,30.05,NE,50,4.0,11.0,65,0.00,,,-99.99,,2013-05-10 16:32:00,
2013-05-10 09:42:00,52.0,41.0,30.05,NE,50,4.0,11.0,65,0.00,,,-99.99,,2013-05-10 16:42:00,
2013-05-10 11:21:00,55.0,33.0,30.09,NNE,30,10.0,15.0,43,0.00,,,-99.99,,2013-05-10 18:21:00,
2013-05-10 11:34:00,55.0,33.0,30.09,NNE,30,10.0,15.0,43,0.00,,,-99.99,,2013-05-10 18:34:00,
2013-05-10 11:43:00,55.0,33.0,30.09,NNE,30,10.0,15.0,43,0.00,,,-99.99,,2013-05-10 18:43:00,
2013-05-10 12:21:00,57.0,36.0,30.09,NE,50,4.0,14.0,45,0.00,,,-99.99,,2013-05-10 19:21:00,
2013-05-10 12:32:00,57.0,36.0,30.09,NE,50,4.0,14.0,45,0.00,,,-99.99,,2013-05-10 19:32:00,
2013-05-10 12:42:00,57.0,36.0,30.09,NE,50,4.0,14.0,45,0.00,,,-99.99,,2013-05-10 19:42:00,
2013-05-10 13:21:00,58.0,35.0,30.09,North,360,4.0,14.0,42,0.00,,,-99.99,,2013-05-10 20:21:00,
2013-05-10 13:32:00,58.0,35.0,30.09,North,360,4.0,14.0,42,0.00,,,-99.99,,2013-05-10 20:32:00,
2013-05-10 13:41:00,58.0,35.0,30.09,North,360,4.0,14.0,42,0.00,,,-99.99,,2013-05-10 20:41:00,
2013-05-10 14:24:00,59.0,35.0,30.09,North,350,11.0,13.0,40,0.00,,,-99.99,,2013-05-10 21:24:00,
2013-05-10 14:32:00,59.0,35.0,30.09,North,350,11.0,13.0,40,0.00,,,-99.99,,2013-05-10 21:32:00,
2013-05-10 14:43:00,59.0,35.0,30.09,North,350,11.0,13.0,40,0.00,,,-99.99,,2013-05-10 21:43:00,
2013-05-10 15:22:00,59.0,31.0,30.08,NE,50,5.0,11.0,35,0.00,,,-99.99,,2013-05-10 22:22:00,
2013-05-10 15:32:00,59.0,31.0,30.08,NE,50,5.0,11.0,35,0.00,,,-99.99,,2013-05-10 22:32:00,
2013-05-10 15:42:00,59.0,31.0,30.08,NE,50,5.0,11.0,35,0.00,,,-99.99,,2013-05-10 22:42:00,
2013-05-10 16:22:00,60.0,29.0,30.07,NNW,340,8.0,15.0,31,0.00,,,-99.99,,2013-05-10 23:22:00,
2013-05-10 16:32:00,60.0,29.0,30.07,NNW,340,8.0,15.0,31,0.00,,,-99.99,,2013-05-10 23:32:00,
2013-05-10 16:41:00,60.0,29.0,30.07,NNW,340,8.0,15.0,31,0.00,,,-99.99,,2013-05-10 23:41:00,
2013-05-10 17:21:00,60.0,28.0,30.07,NNE,20,9.0,9.0,30,0.00,,,-99.99,,2013-05-11 00:21:00,
2013-05-10 17:32:00,60.0,28.0,30.07,NNE,20,9.0,9.0,30,0.00,,,-99.99,,2013-05-11 00:32:00,
2013-05-10 17:42:00,60.0,28.0,30.07,NNE,20,9.0,9.0,30,0.00,,,-99.99,,2013-05-11 00:42:00,
2013-05-10 18:21:00,59.0,30.0,30.06,NNE,30,4.0,11.0,33,0.00,,,-99.99,,2013-05-11 01:21:00,
2013-05-10 18:31:00,59.0,30.0,30.06,NNE,30,4.0,11.0,33,0.00,,,-99.99,,2013-05-11 01:31:00,
2013-05-10 18:42:00,59.0,30.0,30.06,NNE,30,4.0,11.0,33,0.00,,,-99.99,,2013-05-11 01:42:00,
2013-05-10 19:21:00,59.0,28.0,30.06,NE,50,4.0,8.0,31,0.00,,,-99.99,,2013-05-11 02:21:00,
2013-05-10 19:32:00,59.0,28.0,30.06,NE,50,4.0,8.0,31,0.00,,,-99.99,,2013-05-11 02:32:00,
2013-05-10 19:42:00,59.0,28.0,30.06,NE,50,4.0,8.0,31,0.00,,,-99.99,,2013-05-11 02:42:00,
2013-05-10 20:21:00,57.0,28.0,30.07,North,0,0.0,4.0,33,0.00,,,-99.99,,2013-05-11 03:21:00,
2013-05-10 20:32:00,57.0,28.0,30.07,North,0,0.0,4.0,33,0.00,,,-99.99,,2013-05-11 03:32:00,
2013-05-10 20:42:00,57.0,28.0,30.07,North,0,0.0,4.0,33,0.00,,,-99.99,,2013-05-11 03:42:00,
2013-05-10 21:23:00,52.0,28.0,30.09,North,-999,0.0,0.0,39,0.00,,,-99.99,,2013-05-11 04:23:00,
2013-05-10 21:33:00,52.0,28.0,30.09,North,-999,0.0,0.0,39,0.00,,,-99.99,,2013-05-11 04:33:00,
2013-05-10 21:43:00,52.0,28.0,30.09,North,-999,0.0,0.0,39,0.00,,,-99.99,,2013-05-11 04:43:00,
2013-05-10 22:21:00,52.0,28.0,30.10,North,0,0.0,1.0,40,0.00,,,-99.99,,2013-05-11 05:21:00,
2013-05-10 22:32:00,52.0,28.0,30.10,North,0,0.0,1.0,40,0.00,,,-99.99,,2013-05-11 05:32:00,
2013-05-10 22:42:00,52.0,28.0,30.10,North,0,0.0,1.0,40,0.00,,,-99.99,,2013-05-11 05:42:00,
2013-05-10 23:21:00,51.0,29.0,30.10,North,-999,0.0,0.0,42,0.00,,,-99.99,,2013-05-11 06:21:00,
2013-05-10 23:32:00,51.0,29.0,30.10,North,-999,0.0,0.0,42,0.00,,,-99.99,,2013-05-11 06:32:00,
2013-05-10 23:42:00,51.0,29.0,30.10,North,-999,0.0,0.0,42,0.00,,,-99.99,,2013-05-11 06:42:00,